createdAt,value
2018-11-06T00:00:03.235Z,100708.11
2018-11-06T00:02:31.591Z,100712.52
2018-11-06T00:05:05.388Z,100718.73
2018-11-06T00:07:33.572Z,100713.33
2018-11-06T00:10:01.828Z,100713.66
2018-11-06T00:12:30.209Z,100715.22
2018-11-06T00:15:00.110Z,100711.16
2018-11-06T00:17:28.304Z,100714.05
2018-11-06T00:19:56.731Z,100710.45
2018-11-06T00:22:24.976Z,100711.28
2018-11-06T00:24:53.364Z,100716.62
2018-11-06T00:27:21.720Z,100713.72
2018-11-06T00:29:50.165Z,100719.72
2018-11-06T00:32:18.373Z,100713.28
2018-11-06T00:34:46.757Z,100703.59
2018-11-06T00:37:14.962Z,100708.66
2018-11-06T00:39:43.281Z,100719.09
2018-11-06T00:42:11.573Z,100711.89
2018-11-06T00:44:39.765Z,100697.22
2018-11-06T00:47:08.094Z,100687.02
2018-11-06T00:49:36.271Z,100690.63
2018-11-06T00:52:04.827Z,100685.52
2018-11-06T00:54:33.152Z,100675.52
2018-11-06T00:57:01.362Z,100682.36
2018-11-06T00:59:29.669Z,100682.16
2018-11-06T01:01:58.295Z,100680.69
2018-11-06T01:04:26.484Z,100679.31
2018-11-06T01:06:54.679Z,100677.33
2018-11-06T01:09:23.090Z,100681.55
2018-11-06T01:11:51.355Z,100674.27
2018-11-06T01:14:19.635Z,100671.97
2018-11-06T01:16:47.919Z,100672.56
2018-11-06T01:19:16.130Z,100669.86
2018-11-06T01:21:44.357Z,100680.02
2018-11-06T01:24:12.742Z,100673.88
2018-11-06T01:26:40.947Z,100673.24
2018-11-06T01:29:09.155Z,100675.48
2018-11-06T01:31:37.499Z,100672.34
2018-11-06T01:34:05.814Z,100663.78
2018-11-06T01:36:34.053Z,100667.84
2018-11-06T01:39:02.585Z,100666.23
2018-11-06T01:41:30.783Z,100672.99
2018-11-06T01:43:58.983Z,100660.63
2018-11-06T01:46:27.287Z,100652.22
2018-11-06T01:48:55.462Z,100652.27
2018-11-06T01:51:23.654Z,100644.65
2018-11-06T01:53:51.946Z,100648.65
2018-11-06T01:56:21.610Z,100638.32
2018-11-06T01:58:49.773Z,100639.63
2018-11-06T02:01:18.071Z,100633.06
2018-11-06T02:03:46.293Z,100631.76
2018-11-06T02:06:14.518Z,100622.47
2018-11-06T02:08:43.115Z,100636.11
2018-11-06T02:11:11.292Z,100640.46
2018-11-06T02:13:39.584Z,100633.14
2018-11-06T02:16:08.253Z,100633.36
2018-11-06T02:18:36.435Z,100623.61
2018-11-06T02:21:05.100Z,100628.27
2018-11-06T02:23:33.387Z,100627.11
2018-11-06T02:26:01.659Z,100628.03
2018-11-06T02:28:29.884Z,100637.31
2018-11-06T02:30:58.201Z,100630.06
2018-11-06T02:33:26.520Z,100633.98
2018-11-06T02:35:54.699Z,100630.38
2018-11-06T02:38:22.887Z,100635.23
2018-11-06T02:40:51.338Z,100631.78
2018-11-06T02:43:19.507Z,100620.89
2018-11-06T02:45:47.702Z,100616.31
2018-11-06T02:48:15.984Z,100614.67
2018-11-06T02:50:44.268Z,100615.80
2018-11-06T02:53:12.472Z,100614.67
2018-11-06T02:55:40.695Z,100612.07
2018-11-06T02:58:08.990Z,100619.84
2018-11-06T03:00:37.242Z,100618.44
2018-11-06T03:03:05.608Z,100615.76
2018-11-06T03:05:33.904Z,100617.22
2018-11-06T03:08:02.216Z,100611.15
2018-11-06T03:10:30.598Z,100617.41
2018-11-06T03:12:58.824Z,100613.27
2018-11-06T03:15:27.081Z,100616.07
2018-11-06T03:17:55.410Z,100616.52
2018-11-06T03:20:23.640Z,100615.69
2018-11-06T03:22:51.815Z,100615.27
2018-11-06T03:25:20.095Z,100617.20
2018-11-06T03:27:48.301Z,100615.25
2018-11-06T03:30:16.497Z,100619.89
2018-11-06T03:32:45.063Z,100626.61
2018-11-06T03:35:14.046Z,100630.86
2018-11-06T03:37:42.348Z,100633.27
2018-11-06T03:40:11.432Z,100632.40
2018-11-06T03:42:40.447Z,100629.84
2018-11-06T03:45:09.299Z,100633.97
2018-11-06T03:47:37.588Z,100633.44
2018-11-06T03:50:07.394Z,100625.33
2018-11-06T03:52:35.695Z,100631.55
2018-11-06T03:55:04.053Z,100623.91
2018-11-06T03:57:32.236Z,100623.19
2018-11-06T04:00:00.570Z,100624.77
2018-11-06T04:02:28.779Z,100632.77
2018-11-06T04:04:56.997Z,100621.02
2018-11-06T04:07:25.519Z,100623.54
2018-11-06T04:09:53.767Z,100624.75
2018-11-06T04:12:21.939Z,100624.13
2018-11-06T04:14:50.199Z,100626.18
2018-11-06T04:17:18.505Z,100622.36
2018-11-06T04:19:46.705Z,100620.22
2018-11-06T04:22:14.888Z,100621.59
2018-11-06T04:24:43.233Z,100625.79
2018-11-06T04:27:11.527Z,100623.73
2018-11-06T04:29:39.722Z,100632.19
2018-11-06T04:32:08.023Z,100630.11
2018-11-06T04:34:36.332Z,100626.04
2018-11-06T04:37:04.523Z,100628.75
2018-11-06T04:39:32.715Z,100631.62
2018-11-06T04:42:01.010Z,100629.01
2018-11-06T04:44:29.195Z,100635.11
2018-11-06T04:46:57.399Z,100634.45
2018-11-06T04:49:25.719Z,100634.54
2018-11-06T04:51:53.904Z,100632.98
2018-11-06T04:54:22.106Z,100635.23
2018-11-06T04:56:50.386Z,100630.28
2018-11-06T04:59:18.559Z,100636.73
2018-11-06T05:01:46.730Z,100631.97
2018-11-06T05:04:15.010Z,100633.43
2018-11-06T05:06:43.199Z,100626.59
2018-11-06T05:09:11.390Z,100624.63
2018-11-06T05:11:39.706Z,100628.45
2018-11-06T05:14:07.947Z,100639.47
2018-11-06T05:16:36.228Z,100633.20
2018-11-06T05:19:04.574Z,100630.36
2018-11-06T05:21:32.949Z,100639.03
2018-11-06T05:24:01.142Z,100630.41
2018-11-06T05:26:29.320Z,100635.34
2018-11-06T05:28:57.609Z,100647.88
2018-11-06T05:31:26.484Z,100641.36
2018-11-06T05:33:54.682Z,100639.75
2018-11-06T05:36:22.956Z,100643.95
2018-11-06T05:38:51.205Z,100637.52
2018-11-06T05:41:19.316Z,100643.82
2018-11-06T05:43:47.687Z,100643.09
2018-11-06T05:46:15.832Z,100649.72
2018-11-06T05:48:44.010Z,100650.43
2018-11-06T05:51:12.292Z,100657.27
2018-11-06T05:53:40.487Z,100651.91
2018-11-06T05:56:08.679Z,100652.52
2018-11-06T05:58:37.000Z,100666.70
2018-11-06T06:01:05.596Z,100670.45
2018-11-06T06:03:33.818Z,100665.56
2018-11-06T06:06:02.172Z,100665.56
2018-11-06T06:08:30.438Z,100666.27
2018-11-06T06:10:58.763Z,100668.05
2018-11-06T06:13:27.067Z,100678.72
2018-11-06T06:15:55.382Z,100680.51
2018-11-06T06:18:23.657Z,100682.90
2018-11-06T06:20:51.858Z,100682.67
2018-11-06T06:23:20.686Z,100685.51
2018-11-06T06:25:48.940Z,100686.12
2018-11-06T06:28:17.196Z,100685.29
2018-11-06T06:30:45.511Z,100687.82
2018-11-06T06:33:13.837Z,100685.15
2018-11-06T06:35:42.032Z,100682.76
2018-11-06T06:38:10.253Z,100685.90
2018-11-06T06:40:38.744Z,100685.15
2018-11-06T06:43:06.966Z,100684.59
2018-11-06T06:45:35.229Z,100686.20
2018-11-06T06:48:03.642Z,100683.42
2018-11-06T06:50:31.915Z,100690.80
2018-11-06T06:53:00.215Z,100696.50
2018-11-06T06:55:28.606Z,100698.34
2018-11-06T06:57:56.908Z,100697.78
2018-11-06T07:00:25.156Z,100699.48
2018-11-06T07:02:53.479Z,100708.37
2018-11-06T07:05:22.874Z,100698.08
2018-11-06T07:07:51.159Z,100697.38
2018-11-06T07:10:20.885Z,100689.36
2018-11-06T07:12:50.109Z,100688.97
2018-11-06T07:15:19.587Z,100693.15
2018-11-06T07:17:48.546Z,100688.05
2018-11-06T07:20:18.292Z,100682.91
2018-11-06T07:22:46.578Z,100683.86
2018-11-06T07:25:15.262Z,100686.78
2018-11-06T07:27:44.755Z,100684.47
2018-11-06T07:30:15.448Z,100690.31
2018-11-06T07:32:44.301Z,100689.40
2018-11-06T07:35:13.635Z,100685.39
2018-11-06T07:37:42.310Z,100681.85
2018-11-06T07:40:12.109Z,100687.08
2018-11-06T07:42:40.790Z,100691.19
2018-11-06T07:45:12.773Z,100690.31
2018-11-06T07:47:41.273Z,100687.17
2018-11-06T07:50:10.479Z,100682.68
2018-11-06T07:52:39.012Z,100679.14
2018-11-06T07:55:10.277Z,100676.05
2018-11-06T07:57:38.574Z,100669.49
2018-11-06T08:00:12.386Z,100693.89
2018-11-06T08:02:40.783Z,100706.98
2018-11-06T08:05:09.152Z,100704.19
2018-11-06T08:07:37.432Z,100692.89
2018-11-06T08:10:06.808Z,100695.78
2018-11-06T08:12:35.094Z,100703.00
2018-11-06T08:15:03.618Z,100700.31
2018-11-06T08:17:31.903Z,100691.28
2018-11-06T08:20:00.259Z,100685.80
2018-11-06T08:22:28.548Z,100686.28
2018-11-06T08:24:56.790Z,100682.84
2018-11-06T08:27:25.664Z,100686.61
2018-11-06T08:29:53.919Z,100681.56
2018-11-06T08:32:22.655Z,100680.60
2018-11-06T08:34:50.626Z,100675.17
2018-11-06T08:37:18.901Z,100674.41
2018-11-06T08:39:47.328Z,100675.92
2018-11-06T08:42:16.281Z,100686.59
2018-11-06T08:44:44.565Z,100682.30
2018-11-06T08:47:12.930Z,100672.55
2018-11-06T08:49:41.311Z,100668.42
2018-11-06T08:52:09.641Z,100670.02
2018-11-06T08:54:37.968Z,100677.05
2018-11-06T08:57:06.457Z,100669.92
2018-11-06T08:59:34.797Z,100674.31
2018-11-06T09:02:03.141Z,100676.35
2018-11-06T09:04:31.530Z,100678.71
2018-11-06T09:06:59.945Z,100675.41
2018-11-06T09:09:28.257Z,100675.48
2018-11-06T09:11:56.593Z,100670.52
2018-11-06T09:14:25.165Z,100675.67
2018-11-06T09:16:53.565Z,100676.78
2018-11-06T09:19:21.963Z,100673.05
2018-11-06T09:21:50.274Z,100660.30
2018-11-06T09:24:18.582Z,100657.37
2018-11-06T09:26:47.011Z,100653.30
2018-11-06T09:29:15.312Z,100663.42
2018-11-06T09:31:43.741Z,100660.09
2018-11-06T09:34:12.164Z,100656.70
2018-11-06T09:36:40.430Z,100654.89
2018-11-06T09:39:10.607Z,100647.63
2018-11-06T09:41:39.421Z,100650.39
2018-11-06T09:44:07.745Z,100638.21
2018-11-06T09:46:38.019Z,100639.44
2018-11-06T09:49:06.906Z,100637.36
2018-11-06T09:51:35.559Z,100633.72
2018-11-06T09:54:04.411Z,100630.42
2018-11-06T09:56:32.781Z,100632.50
2018-11-06T09:59:01.165Z,100630.87
2018-11-06T10:01:29.893Z,100623.55
2018-11-06T10:03:58.188Z,100631.78
2018-11-06T10:06:26.620Z,100639.56
2018-11-06T10:08:54.938Z,100639.23
2018-11-06T10:11:23.351Z,100628.36
2018-11-06T10:13:51.779Z,100630.45
2018-11-06T10:16:20.059Z,100636.86
2018-11-06T10:18:49.441Z,100637.15
2018-11-06T10:21:18.972Z,100637.00
2018-11-06T10:23:47.337Z,100636.42
2018-11-06T10:26:15.604Z,100636.51
2018-11-06T10:28:43.940Z,100633.95
2018-11-06T10:31:12.408Z,100638.05
2018-11-06T10:33:40.860Z,100639.83
2018-11-06T10:36:09.169Z,100638.41
2018-11-06T10:38:37.617Z,100631.16
2018-11-06T10:41:06.368Z,100640.53
2018-11-06T10:43:34.703Z,100634.89
2018-11-06T10:46:03.022Z,100634.28
2018-11-06T10:48:32.294Z,100628.38
2018-11-06T10:51:00.646Z,100620.40
2018-11-06T10:53:29.029Z,100609.33
2018-11-06T10:55:57.848Z,100602.20
2018-11-06T10:58:26.093Z,100596.05
2018-11-06T11:01:00.460Z,100599.83
2018-11-06T11:03:38.049Z,100597.55
2018-11-06T11:06:06.673Z,100606.44
2018-11-06T11:08:34.985Z,100604.28
2018-11-06T11:11:03.373Z,100594.69
2018-11-06T11:13:31.740Z,100591.69
2018-11-06T11:16:00.050Z,100584.53
2018-11-06T11:18:28.486Z,100584.41
2018-11-06T11:20:56.890Z,100592.44
2018-11-06T11:23:25.339Z,100596.87
2018-11-06T11:25:53.670Z,100589.91
2018-11-06T11:28:22.092Z,100592.25
2018-11-06T11:30:50.446Z,100587.78
2018-11-06T11:33:18.852Z,100583.12
2018-11-06T11:35:47.136Z,100583.01
2018-11-06T11:38:15.486Z,100589.63
2018-11-06T11:40:43.978Z,100583.42
2018-11-06T11:43:12.363Z,100579.93
2018-11-06T11:45:40.741Z,100579.92
2018-11-06T11:48:09.016Z,100582.28
2018-11-06T11:50:37.280Z,100584.37
2018-11-06T11:53:05.665Z,100578.97
2018-11-06T11:55:33.904Z,100579.22
2018-11-06T11:58:02.204Z,100571.16
2018-11-06T12:00:30.722Z,100562.60
2018-11-06T12:02:58.930Z,100566.28
2018-11-06T12:05:27.254Z,100568.55
2018-11-06T12:07:55.629Z,100560.30
2018-11-06T12:10:23.877Z,100559.20
2018-11-06T12:12:52.173Z,100554.52
2018-11-06T12:15:20.590Z,100557.08
2018-11-06T12:17:48.873Z,100555.56
2018-11-06T12:20:17.243Z,100554.88
2018-11-06T12:22:45.625Z,100549.35
2018-11-06T12:25:14.359Z,100548.88
2018-11-06T12:27:42.540Z,100548.55
2018-11-06T12:30:13.869Z,100542.71
2018-11-06T12:32:42.245Z,100535.05
2018-11-06T12:35:11.493Z,100529.91
2018-11-06T12:37:40.211Z,100527.06
2018-11-06T12:40:10.123Z,100531.25
2018-11-06T12:42:38.892Z,100532.58
2018-11-06T12:45:09.787Z,100530.08
2018-11-06T12:47:38.383Z,100529.56
2018-11-06T12:50:07.839Z,100523.88
2018-11-06T12:52:36.204Z,100517.89
2018-11-06T12:55:06.142Z,100515.19
2018-11-06T12:57:34.444Z,100508.00
2018-11-06T13:00:02.783Z,100509.16
2018-11-06T13:02:31.202Z,100508.52
2018-11-06T13:04:59.409Z,100509.83
2018-11-06T13:07:27.705Z,100508.77
2018-11-06T13:09:56.241Z,100511.68
2018-11-06T13:12:24.438Z,100510.14
2018-11-06T13:14:52.698Z,100513.59
2018-11-06T13:17:21.100Z,100510.86
2018-11-06T13:19:49.327Z,100510.15
2018-11-06T13:22:17.717Z,100509.70
2018-11-06T13:24:45.967Z,100502.97
2018-11-06T13:27:14.286Z,100501.62
2018-11-06T13:29:42.696Z,100498.13
2018-11-06T13:32:11.003Z,100500.55
2018-11-06T13:34:39.875Z,100496.21
2018-11-06T13:37:08.272Z,100496.70
2018-11-06T13:39:36.521Z,100500.69
2018-11-06T13:42:05.337Z,100500.53
2018-11-06T13:44:34.006Z,100491.66
2018-11-06T13:47:01.869Z,100500.73
2018-11-06T13:49:30.288Z,100500.67
2018-11-06T13:51:58.759Z,100500.64
2018-11-06T13:54:26.998Z,100499.09
2018-11-06T13:56:55.248Z,100499.88
2018-11-06T13:59:23.636Z,100497.56
2018-11-06T14:01:51.877Z,100495.47
2018-11-06T14:04:20.176Z,100501.23
2018-11-06T14:06:48.448Z,100501.31
2018-11-06T14:09:16.794Z,100499.55
2018-11-06T14:11:45.063Z,100503.51
2018-11-06T14:14:13.572Z,100499.83
2018-11-06T14:16:42.438Z,100508.79
2018-11-06T14:19:10.873Z,100508.16
2018-11-06T14:21:39.246Z,100501.05
2018-11-06T14:24:07.639Z,100509.02
2018-11-06T14:26:35.934Z,100500.22
2018-11-06T14:29:04.246Z,100512.16
2018-11-06T14:31:32.590Z,100511.72
2018-11-06T14:34:00.991Z,100518.72
2018-11-06T14:36:29.312Z,100516.13
2018-11-06T14:38:57.572Z,100515.02
2018-11-06T14:41:26.197Z,100510.75
2018-11-06T14:43:54.541Z,100510.47
2018-11-06T14:46:22.864Z,100511.23
2018-11-06T14:48:51.245Z,100505.81
2018-11-06T14:51:19.484Z,100516.09
2018-11-06T14:53:47.891Z,100518.03
2018-11-06T14:56:17.914Z,100519.16
2018-11-06T14:58:46.159Z,100519.52
2018-11-06T15:01:14.653Z,100518.50
2018-11-06T15:03:42.961Z,100520.27
2018-11-06T15:06:11.248Z,100508.68
2018-11-06T15:08:39.702Z,100508.52
2018-11-06T15:11:08.126Z,100516.66
2018-11-06T15:13:36.648Z,100519.45
2018-11-06T15:16:05.284Z,100521.13
2018-11-06T15:18:33.560Z,100519.53
2018-11-06T15:21:02.060Z,100522.41
2018-11-06T15:23:30.297Z,100519.09
2018-11-06T15:25:58.528Z,100527.53
2018-11-06T15:28:26.864Z,100527.46
2018-11-06T15:30:55.360Z,100531.83
2018-11-06T15:33:23.695Z,100529.13
2018-11-06T15:35:52.027Z,100531.47
2018-11-06T15:38:20.455Z,100528.80
2018-11-06T15:40:48.837Z,100536.87
2018-11-06T15:43:17.228Z,100533.80
2018-11-06T15:45:45.630Z,100538.83
2018-11-06T15:48:14.002Z,100541.69
2018-11-06T15:50:42.328Z,100533.97
2018-11-06T15:53:10.699Z,100530.55
2018-11-06T15:55:39.001Z,100525.80
2018-11-06T15:58:08.133Z,100531.52
2018-11-06T16:00:36.752Z,100534.63
2018-11-06T16:03:05.084Z,100532.13
2018-11-06T16:05:33.318Z,100533.27
2018-11-06T16:08:01.790Z,100546.42
2018-11-06T16:10:30.148Z,100555.70
2018-11-06T16:12:58.452Z,100561.85
2018-11-06T16:15:27.171Z,100568.55
2018-11-06T16:17:55.463Z,100564.69
2018-11-06T16:20:23.750Z,100569.63
2018-11-06T16:22:52.268Z,100568.89
2018-11-06T16:25:21.370Z,100572.47
2018-11-06T16:27:49.825Z,100581.09
2018-11-06T16:30:19.364Z,100583.22
2018-11-06T16:32:47.891Z,100583.34
2018-11-06T16:35:17.727Z,100580.23
2018-11-06T16:37:46.511Z,100582.00
2018-11-06T16:40:15.280Z,100579.59
2018-11-06T16:42:44.377Z,100574.27
2018-11-06T16:45:16.385Z,100579.63
2018-11-06T16:47:45.780Z,100595.95
2018-11-06T16:50:15.247Z,100603.93
2018-11-06T16:52:43.778Z,100607.86
2018-11-06T16:55:12.460Z,100599.20
2018-11-06T16:57:41.846Z,100598.00
2018-11-06T17:00:14.014Z,100605.45
2018-11-06T17:02:42.737Z,100599.41
2018-11-06T17:05:12.324Z,100600.20
2018-11-06T17:07:42.230Z,100605.94
2018-11-06T17:10:11.988Z,100607.53
2018-11-06T17:12:40.645Z,100605.38
2018-11-06T17:15:17.073Z,100602.95
2018-11-06T17:17:46.251Z,100606.55
2018-11-06T17:20:15.090Z,100601.40
2018-11-06T17:22:43.399Z,100604.34
2018-11-06T17:25:13.868Z,100602.50
2018-11-06T17:27:42.191Z,100604.16
2018-11-06T17:30:13.104Z,100609.61
2018-11-06T17:32:41.865Z,100610.66
2018-11-06T17:35:12.915Z,100613.59
2018-11-06T17:37:41.649Z,100607.88
2018-11-06T17:40:12.282Z,100617.50
2018-11-06T17:42:41.178Z,100608.42
2018-11-06T17:45:15.263Z,100612.44
2018-11-06T17:47:43.751Z,100613.11
2018-11-06T17:50:13.565Z,100606.64
2018-11-06T17:52:42.257Z,100602.21
2018-11-06T17:55:12.243Z,100603.01
2018-11-06T17:57:40.897Z,100611.06
2018-11-06T18:00:13.237Z,100605.54
2018-11-06T18:02:44.217Z,100594.97
2018-11-06T18:05:13.640Z,100587.64
2018-11-06T18:07:42.529Z,100588.81
2018-11-06T18:10:12.743Z,100591.97
2018-11-06T18:12:41.081Z,100588.51
2018-11-06T18:15:09.614Z,100594.75
2018-11-06T18:17:38.738Z,100597.72
2018-11-06T18:20:08.415Z,100605.39
2018-11-06T18:22:37.110Z,100604.41
2018-11-06T18:25:06.217Z,100603.95
2018-11-06T18:27:34.538Z,100608.27
2018-11-06T18:30:03.040Z,100608.99
2018-11-06T18:32:31.345Z,100609.33
2018-11-06T18:34:59.697Z,100606.91
2018-11-06T18:37:28.129Z,100604.55
2018-11-06T18:39:57.043Z,100617.23
2018-11-06T18:42:25.335Z,100622.89
2018-11-06T18:44:53.836Z,100624.70
2018-11-06T18:47:22.138Z,100622.78
2018-11-06T18:49:51.690Z,100625.36
2018-11-06T18:52:20.173Z,100627.33
2018-11-06T18:54:48.518Z,100627.83
2018-11-06T18:57:16.879Z,100629.04
2018-11-06T18:59:45.315Z,100621.91
2018-11-06T19:02:13.731Z,100624.64
2018-11-06T19:04:42.696Z,100616.32
2018-11-06T19:07:11.119Z,100622.79
2018-11-06T19:09:39.423Z,100621.87
2018-11-06T19:12:07.773Z,100622.41
2018-11-06T19:14:36.242Z,100619.56
2018-11-06T19:17:04.945Z,100614.52
2018-11-06T19:19:33.484Z,100612.21
2018-11-06T19:22:01.831Z,100622.84
2018-11-06T19:24:30.258Z,100628.21
2018-11-06T19:26:58.602Z,100632.72
2018-11-06T19:29:27.546Z,100630.36
2018-11-06T19:31:55.920Z,100631.78
2018-11-06T19:34:24.354Z,100630.78
2018-11-06T19:36:53.270Z,100631.13
2018-11-06T19:39:21.723Z,100631.51
2018-11-06T19:41:50.125Z,100634.03
2018-11-06T19:44:18.494Z,100630.19
2018-11-06T19:46:46.839Z,100629.66
2018-11-06T19:49:15.378Z,100624.94
2018-11-06T19:51:44.028Z,100628.45
2018-11-06T19:54:12.307Z,100632.28
2018-11-06T19:56:40.716Z,100632.38
2018-11-06T19:59:09.131Z,100633.69
2018-11-06T20:01:37.560Z,100632.61
2018-11-06T20:04:06.181Z,100636.71
2018-11-06T20:06:34.899Z,100642.56
2018-11-06T20:09:05.170Z,100642.03
2018-11-06T20:11:33.576Z,100646.84
2018-11-06T20:14:01.988Z,100641.63
2018-11-06T20:16:30.376Z,100641.03
2018-11-06T20:18:58.805Z,100647.50
2018-11-06T20:21:27.273Z,100645.03
2018-11-06T20:23:55.663Z,100647.48
2018-11-06T20:26:24.044Z,100650.19
2018-11-06T20:28:52.440Z,100654.67
2018-11-06T20:31:20.712Z,100645.57
2018-11-06T20:33:49.124Z,100652.31
2018-11-06T20:36:18.029Z,100651.64
2018-11-06T20:38:46.503Z,100650.66
2018-11-06T20:41:14.773Z,100648.41
2018-11-06T20:43:43.271Z,100648.41
2018-11-06T20:46:11.645Z,100647.63
2018-11-06T20:48:40.018Z,100659.95
2018-11-06T20:51:08.539Z,100661.95
2018-11-06T20:53:36.970Z,100657.17
2018-11-06T20:56:06.125Z,100659.38
2018-11-06T20:58:34.699Z,100660.80
2018-11-06T21:01:03.281Z,100663.42
2018-11-06T21:03:31.753Z,100664.20
2018-11-06T21:06:00.807Z,100664.42
2018-11-06T21:08:29.094Z,100661.03
2018-11-06T21:10:57.927Z,100664.33
2018-11-06T21:13:27.478Z,100657.53
2018-11-06T21:15:55.750Z,100668.48
2018-11-06T21:18:24.007Z,100671.17
2018-11-06T21:20:52.409Z,100666.39
2018-11-06T21:23:20.998Z,100664.16
2018-11-06T21:25:49.978Z,100667.37
2018-11-06T21:28:18.209Z,100669.52
2018-11-06T21:30:46.597Z,100669.52
2018-11-06T21:33:14.881Z,100672.55
2018-11-06T21:35:43.278Z,100672.86
2018-11-06T21:38:11.663Z,100668.09
2018-11-06T21:40:39.885Z,100666.67
2018-11-06T21:43:08.283Z,100666.61
2018-11-06T21:45:36.618Z,100663.81
2018-11-06T21:48:05.105Z,100661.53
2018-11-06T21:50:33.711Z,100660.56
2018-11-06T21:53:02.062Z,100661.36
2018-11-06T21:55:30.315Z,100665.30
2018-11-06T21:57:58.653Z,100663.51
2018-11-06T22:00:27.019Z,100660.70
2018-11-06T22:02:55.257Z,100665.13
2018-11-06T22:05:23.822Z,100666.90
2018-11-06T22:07:52.050Z,100665.30
2018-11-06T22:10:20.977Z,100655.62
2018-11-06T22:12:49.824Z,100652.34
2018-11-06T22:15:18.874Z,100655.90
2018-11-06T22:17:47.166Z,100655.24
2018-11-06T22:20:16.987Z,100663.75
2018-11-06T22:22:45.761Z,100666.58
2018-11-06T22:25:14.119Z,100676.09
2018-11-06T22:27:42.620Z,100669.17
2018-11-06T22:30:12.454Z,100658.50
2018-11-06T22:32:41.654Z,100650.41
2018-11-06T22:35:11.643Z,100651.23
2018-11-06T22:37:39.980Z,100653.20
2018-11-06T22:40:09.462Z,100658.67
2018-11-06T22:42:38.020Z,100664.20
2018-11-06T22:45:09.008Z,100665.61
2018-11-06T22:47:37.347Z,100668.90
2018-11-06T22:50:07.867Z,100667.03
2018-11-06T22:52:36.253Z,100664.20
2018-11-06T22:55:04.665Z,100674.33
2018-11-06T22:57:32.912Z,100676.78
2018-11-06T23:00:01.275Z,100678.42
2018-11-06T23:02:29.661Z,100676.27
2018-11-06T23:04:57.890Z,100676.53
2018-11-06T23:07:31.902Z,100676.47
2018-11-06T23:10:00.370Z,100678.89
2018-11-06T23:12:28.625Z,100675.13
2018-11-06T23:14:56.888Z,100669.59
2018-11-06T23:17:25.231Z,100673.06
2018-11-06T23:19:53.456Z,100673.16
2018-11-06T23:22:21.673Z,100667.63
2018-11-06T23:24:50.122Z,100680.95
2018-11-06T23:27:18.342Z,100672.20
2018-11-06T23:29:46.681Z,100681.86
2018-11-06T23:32:14.957Z,100684.77
2018-11-06T23:34:43.193Z,100687.39
2018-11-06T23:37:11.615Z,100690.70
2018-11-06T23:39:39.887Z,100691.17
2018-11-06T23:42:08.088Z,100699.02
2018-11-06T23:44:36.498Z,100697.53
2018-11-06T23:47:04.926Z,100689.02
2018-11-06T23:49:33.290Z,100698.56
2018-11-06T23:52:01.639Z,100697.55
2018-11-06T23:54:29.979Z,100691.06
2018-11-06T23:56:58.399Z,100687.80
2018-11-06T23:59:26.772Z,100691.36
